Time;durP1;ratioP1;P1;durP2;ratioP2;P2;SDS_P1;SDS_P2;PMS_P1;PMS_P2;Temp;Humidity;BMP_temperature;BMP_pressure;BME280_temperature;BME280_humidity;BME280_pressure;Samples;Min_cycle;Max_cycle;Signal;HPM_P1;HPM_P2
2022/09/13 00:00:59;;;;;;;;;;;;;;;13.23;100.00;98755.13;5093874;28;20358;-78
2022/09/13 00:03:27;;;;;;;;;;;;;;;13.45;100.00;98739.22;5093635;28;19928;-78
2022/09/13 00:05:54;;;;;;;;;;;;;;;13.48;100.00;98741.13;5094933;28;20313;-78
2022/09/13 00:08:21;;;;;;;;;;;;;;;13.56;100.00;98728.41;5093626;28;20375;-78
2022/09/13 00:10:48;;;;;;;;;;;;;;;13.35;100.00;98737.50;5094492;28;20408;-78
2022/09/13 00:13:16;;;;;;;;;;;;;;;13.58;100.00;98732.34;5076679;28;19977;-78
2022/09/13 00:15:44;;;;;;;;;;;;;;;14.00;100.00;98730.09;5093406;28;19990;-78
2022/09/13 00:18:11;;;;;;;;;;;;;;;13.37;100.00;98726.63;5094743;28;19963;-78
2022/09/13 00:20:38;;;;;;;;;;;;;;;13.72;100.00;98731.84;5094563;28;19977;-78
2022/09/13 00:23:05;;;;;;;;;;;;;;;13.75;100.00;98738.59;5094916;28;19930;-78
2022/09/13 00:25:33;;;;;;;;;;;;;;;13.79;100.00;98731.63;5094216;28;19924;-78
2022/09/13 00:28:00;;;;;;;;;;;;;;;13.89;100.00;98729.66;5093161;28;19931;-78
2022/09/13 00:30:27;;;;;;;;;;;;;;;13.79;100.00;98719.59;5094374;28;19982;-78
2022/09/13 00:32:54;;;;;;;;;;;;;;;13.51;100.00;98721.34;5094309;28;19925;-78
2022/09/13 00:35:22;;;;;;;;;;;;;;;13.64;100.00;98730.53;5094307;28;19932;-78
2022/09/13 00:37:49;;;;;;;;;;;;;;;13.87;100.00;98735.75;5094554;28;19928;-78
2022/09/13 00:40:16;;;;;;;;;;;;;;;13.61;100.00;98725.03;5075570;28;20475;-78
2022/09/13 00:42:43;;;;;;;;;;;;;;;13.51;100.00;98726.94;5094012;28;20371;-78
2022/09/13 00:45:11;;;;;;;;;;;;;;;13.55;100.00;98729.66;5094236;28;20007;-78
2022/09/13 00:47:59;;;;;;;;;;;;;;;13.69;100.00;98727.13;5094092;28;20350;-78
2022/09/13 00:50:26;;;;;;;;;;;;;;;13.90;100.00;98728.44;5094048;28;20299;-78
2022/09/13 00:52:58;;;;;;;;;;;;;;;13.55;100.00;98724.03;5092904;28;19931;-78
2022/09/13 00:55:28;;;;;;;;;;;;;;;13.63;100.00;98719.75;5093929;28;19966;-78
2022/09/13 00:57:59;;;;;;;;;;;;;;;13.51;100.00;98729.00;5094175;28;19931;-78
2022/09/13 01:00:27;;;;;;;;;;;;;;;13.29;100.00;98726.09;5093998;28;19932;-78
2022/09/13 01:02:56;;;;;;;;;;;;;;;13.27;100.00;98733.38;5092698;28;19924;-78
2022/09/13 01:05:26;;;;;;;;;;;;;;;13.48;100.00;98735.50;5059322;28;19930;-78
2022/09/13 01:07:55;;;;;;;;;;;;;;;13.43;100.00;98727.63;5093792;28;20402;-78
2022/09/13 01:10:22;;;;;;;;;;;;;;;13.28;100.00;98730.13;5093580;28;19955;-78
2022/09/13 01:13:00;;;;;;;;;;;;;;;13.20;100.00;98725.19;5093669;28;19931;-78
2022/09/13 01:15:27;;;;;;;;;;;;;;;13.04;100.00;98730.91;5093609;28;19928;-78
2022/09/13 01:17:55;;;;;;;;;;;;;;;12.97;100.00;98731.06;5093498;28;20379;-78
2022/09/13 01:20:27;;;;;;;;;;;;;;;12.80;100.00;98732.44;5092357;28;19930;-78
2022/09/13 01:23:19;;;;;;;;;;;;;;;12.48;100.00;98734.13;5093182;28;20283;-78
2022/09/13 01:25:49;;;;;;;;;;;;;;;12.61;100.00;98746.19;5092330;28;20363;-78
2022/09/13 01:28:19;;;;;;;;;;;;;;;12.45;100.00;98756.63;5093262;28;19924;-78
2022/09/13 01:30:46;;;;;;;;;;;;;;;12.74;100.00;98752.59;5093531;28;19946;-78
2022/09/13 01:33:19;;;;;;;;;;;;;;;12.84;100.00;98749.91;5093362;28;19924;-78
2022/09/13 01:36:10;;;;;;;;;;;;;;;12.93;100.00;98747.25;5092174;28;19971;-78
2022/09/13 01:38:40;;;;;;;;;;;;;;;13.07;100.00;98758.81;5093107;28;19924;-78
2022/09/13 01:41:07;;;;;;;;;;;;;;;13.11;100.00;98758.72;5092007;28;19977;-78
2022/09/13 01:43:52;;;;;;;;;;;;;;;13.13;100.00;98751.41;5093149;28;19925;-78
2022/09/13 01:46:25;;;;;;;;;;;;;;;13.00;100.00;98738.63;5093300;28;20436;-78
2022/09/13 01:49:02;;;;;;;;;;;;;;;13.09;100.00;98738.75;5093264;28;19970;-78
2022/09/13 01:51:52;;;;;;;;;;;;;;;12.97;100.00;98736.69;5091846;28;19924;-78
2022/09/13 01:54:36;;;;;;;;;;;;;;;12.92;100.00;98737.25;5010865;28;19956;-78
2022/09/13 01:57:07;;;;;;;;;;;;;;;12.63;100.00;98726.88;5011053;28;19926;-78
2022/09/13 01:59:38;;;;;;;;;;;;;;;12.64;100.00;98724.88;5010870;28;19968;-78
2022/09/13 02:02:09;;;;;;;;;;;;;;;12.85;100.00;98729.03;5011032;28;19925;-78
2022/09/13 02:04:39;;;;;;;;;;;;;;;12.86;100.00;98731.41;4978337;28;20372;-78
2022/09/13 02:07:08;;;;;;;;;;;;;;;12.32;100.00;98723.00;5010485;28;19926;-78
2022/09/13 02:09:39;;;;;;;;;;;;;;;12.31;100.00;98727.00;5010802;28;20488;-78
2022/09/13 02:12:13;;;;;;;;;;;;;;;12.00;100.00;98731.50;5011065;28;19925;-77
2022/09/13 02:14:42;;;;;;;;;;;;;;;12.13;100.00;98746.31;4994376;28;19925;-78
2022/09/13 02:17:10;;;;;;;;;;;;;;;12.27;100.00;98745.16;5010682;28;20468;-78
2022/09/13 02:19:42;;;;;;;;;;;;;;;11.92;100.00;98746.13;4994336;28;19955;-78
2022/09/13 02:22:12;;;;;;;;;;;;;;;12.32;100.00;98750.22;5010668;28;19929;-78
2022/09/13 02:24:41;;;;;;;;;;;;;;;12.10;100.00;98757.63;5010717;28;20397;-78
2022/09/13 02:27:11;;;;;;;;;;;;;;;11.74;100.00;98757.75;4994219;28;19929;-78
2022/09/13 02:29:39;;;;;;;;;;;;;;;12.04;100.00;98754.56;5010645;28;19929;-78
2022/09/13 02:32:32;;;;;;;;;;;;;;;11.59;100.00;98750.91;5054174;28;19981;-78
2022/09/13 02:35:01;;;;;;;;;;;;;;;11.79;100.00;98751.66;5089434;28;19930;-78
2022/09/13 02:37:31;;;;;;;;;;;;;;;12.07;100.00;98750.88;5091322;28;19977;-78
2022/09/13 02:40:03;;;;;;;;;;;;;;;12.15;100.00;98743.09;5092718;28;20271;-78
2022/09/13 02:42:36;;;;;;;;;;;;;;;11.76;100.00;98734.94;5092599;28;19931;-78
2022/09/13 02:45:05;;;;;;;;;;;;;;;11.94;100.00;98740.84;5092601;28;20302;-78
2022/09/13 02:47:35;;;;;;;;;;;;;;;11.67;100.00;98749.56;5091625;28;19924;-78
2022/09/13 02:50:08;;;;;;;;;;;;;;;11.79;100.00;98753.66;5092340;28;19932;-78
2022/09/13 02:52:43;;;;;;;;;;;;;;;11.80;100.00;98744.81;5091482;28;20014;-78
2022/09/13 02:55:18;;;;;;;;;;;;;;;11.82;100.00;98747.97;5092648;28;19923;-78
2022/09/13 02:57:51;;;;;;;;;;;;;;;11.67;100.00;98752.34;5092776;28;19924;-78
2022/09/13 03:00:18;;;;;;;;;;;;;;;11.42;100.00;98745.78;5092562;28;19927;-78
2022/09/13 03:02:46;;;;;;;;;;;;;;;11.02;100.00;98761.88;5092566;28;19924;-78
2022/09/13 03:05:13;;;;;;;;;;;;;;;11.39;100.00;98769.03;5076232;28;19930;-78
2022/09/13 03:07:40;;;;;;;;;;;;;;;11.12;100.00;98766.44;5096098;28;19966;-78
2022/09/13 03:10:10;;;;;;;;;;;;;;;11.28;100.00;98752.50;5078242;28;19928;-78
2022/09/13 03:12:37;;;;;;;;;;;;;;;11.47;100.00;98760.00;5096232;28;20394;-78
2022/09/13 03:15:17;;;;;;;;;;;;;;;11.34;100.00;98761.94;5094772;28;20027;-78
2022/09/13 03:17:47;;;;;;;;;;;;;;;11.14;100.00;98757.63;5095934;28;19962;-78
2022/09/13 03:20:20;;;;;;;;;;;;;;;10.79;100.00;98759.19;5095686;28;19928;-78
2022/09/13 03:22:47;;;;;;;;;;;;;;;10.99;100.00;98751.56;5094683;28;19931;-78
2022/09/13 03:25:17;;;;;;;;;;;;;;;10.62;100.00;98754.78;5094407;28;20338;-78
2022/09/13 03:27:45;;;;;;;;;;;;;;;10.60;100.00;98760.03;5095605;28;20375;-78
2022/09/13 03:30:13;;;;;;;;;;;;;;;10.87;100.00;98766.22;5094359;28;19952;-78
2022/09/13 03:32:51;;;;;;;;;;;;;;;10.67;100.00;98759.88;5094461;28;19924;-78
2022/09/13 03:35:24;;;;;;;;;;;;;;;10.60;100.00;98765.59;5095368;28;19928;-78
2022/09/13 03:37:56;;;;;;;;;;;;;;;10.75;100.00;98758.50;5095558;28;20019;-78
2022/09/13 03:40:34;;;;;;;;;;;;;;;10.06;100.00;98755.88;5077508;28;19924;-78
2022/09/13 03:43:15;;;;;;;;;;;;;;;9.78;100.00;98756.41;5094065;28;20022;-78
2022/09/13 03:45:45;;;;;;;;;;;;;;;10.36;100.00;98764.13;5095385;28;19925;-78
2022/09/13 03:48:13;;;;;;;;;;;;;;;10.42;100.00;98763.16;5095154;28;19931;-78
2022/09/13 03:50:40;;;;;;;;;;;;;;;10.35;100.00;98762.50;5095137;28;19924;-78
2022/09/13 03:53:11;;;;;;;;;;;;;;;10.30;100.00;98760.25;5094061;28;19935;-78
2022/09/13 03:55:40;;;;;;;;;;;;;;;10.36;100.00;98764.13;5095182;28;19930;-78
2022/09/13 03:58:12;;;;;;;;;;;;;;;10.51;100.00;98765.41;5095094;28;19936;-78
2022/09/13 04:00:40;;;;;;;;;;;;;;;10.28;100.00;98768.25;5093980;28;19951;-78
2022/09/13 04:03:08;;;;;;;;;;;;;;;10.36;100.00;98764.88;5093648;28;19923;-78
2022/09/13 04:05:35;;;;;;;;;;;;;;;10.23;100.00;98771.53;5094835;28;19924;-78
2022/09/13 04:08:04;;;;;;;;;;;;;;;10.03;100.00;98773.47;5094888;28;19930;-78
2022/09/13 04:10:31;;;;;;;;;;;;;;;9.45;100.00;98763.72;5094742;28;19924;-78
2022/09/13 04:12:59;;;;;;;;;;;;;;;9.96;100.00;98765.22;5094751;28;19970;-78
2022/09/13 04:15:27;;;;;;;;;;;;;;;10.13;100.00;98761.38;5076588;28;19925;-78
2022/09/13 04:17:54;;;;;;;;;;;;;;;10.08;100.00;98770.22;5093257;28;20299;-78
2022/09/13 04:20:21;;;;;;;;;;;;;;;10.14;100.00;98758.16;5076440;28;19924;-78
2022/09/13 04:22:54;;;;;;;;;;;;;;;9.80;100.00;98765.91;5094602;28;20019;-78
2022/09/13 04:25:21;;;;;;;;;;;;;;;9.11;100.00;98769.44;5094512;28;19953;-78
2022/09/13 04:27:58;;;;;;;;;;;;;;;9.16;100.00;98774.53;5076505;28;20333;-78
2022/09/13 04:30:27;;;;;;;;;;;;;;;9.66;100.00;98776.53;5093298;28;19930;-78
2022/09/13 04:32:58;;;;;;;;;;;;;;;9.97;100.00;98775.19;5092887;28;19931;-78
2022/09/13 04:35:25;;;;;;;;;;;;;;;9.33;100.00;98769.13;5094487;28;19924;-78
2022/09/13 04:37:58;;;;;;;;;;;;;;;9.43;100.00;98768.16;5094466;28;20302;-78
2022/09/13 04:40:25;;;;;;;;;;;;;;;9.50;100.00;98773.59;5094278;28;19934;-78
2022/09/13 04:42:52;;;;;;;;;;;;;;;9.26;100.00;98777.56;5093156;28;19924;-78
2022/09/13 04:45:19;;;;;;;;;;;;;;;9.29;100.00;98785.09;5092893;28;19928;-78
2022/09/13 04:47:50;;;;;;;;;;;;;;;9.07;100.00;98779.06;5092700;28;19924;-78
2022/09/13 04:50:19;;;;;;;;;;;;;;;9.54;100.00;98783.50;5093053;28;19924;-78
2022/09/13 04:52:49;;;;;;;;;;;;;;;9.76;100.00;98781.13;5093062;28;19928;-78
2022/09/13 04:55:16;;;;;;;;;;;;;;;9.53;100.00;98779.13;5094146;28;19924;-78
2022/09/13 04:57:43;;;;;;;;;;;;;;;8.86;100.00;98768.22;5094147;28;20433;-78
2022/09/13 05:00:10;;;;;;;;;;;;;;;9.03;100.00;98775.53;5075336;28;19924;-78
2022/09/13 05:02:37;;;;;;;;;;;;;;;9.40;100.00;98774.56;5094066;28;19924;-78
2022/09/13 05:05:04;;;;;;;;;;;;;;;9.65;100.00;98780.53;5092620;28;19935;-78
2022/09/13 05:07:31;;;;;;;;;;;;;;;9.80;100.00;98773.50;5093996;28;20337;-78
2022/09/13 05:09:58;;;;;;;;;;;;;;;9.82;100.00;98773.84;5091877;28;19923;-78
2022/09/13 05:12:25;;;;;;;;;;;;;;;9.84;100.00;98777.00;5092798;28;20355;-78
2022/09/13 05:14:52;;;;;;;;;;;;;;;9.49;100.00;98778.41;5092171;28;19959;-78
2022/09/13 05:17:20;;;;;;;;;;;;;;;9.74;100.00;98778.00;5093845;28;20467;-78
2022/09/13 05:19:49;;;;;;;;;;;;;;;8.80;100.00;98769.88;5092422;28;19950;-78
2022/09/13 05:22:16;;;;;;;;;;;;;;;9.21;100.00;98783.63;5093477;28;20387;-78
2022/09/13 05:24:43;;;;;;;;;;;;;;;9.16;100.00;98782.13;5091960;28;19925;-78
2022/09/13 05:27:11;;;;;;;;;;;;;;;9.08;100.00;98770.28;5092518;28;19924;-78
2022/09/13 05:29:38;;;;;;;;;;;;;;;8.63;100.00;98768.91;5093122;28;19924;-78
2022/09/13 05:32:05;;;;;;;;;;;;;;;8.83;100.00;98761.47;5092307;28;19924;-78
2022/09/13 05:34:33;;;;;;;;;;;;;;;9.03;100.00;98764.38;5092273;28;19924;-78
2022/09/13 05:37:00;;;;;;;;;;;;;;;9.20;100.00;98771.69;5092096;28;19946;-78
2022/09/13 05:39:27;;;;;;;;;;;;;;;8.76;100.00;98766.34;5092100;28;20283;-78
2022/09/13 05:41:59;;;;;;;;;;;;;;;8.82;100.00;98762.69;5093268;28;20398;-77
2022/09/13 05:44:27;;;;;;;;;;;;;;;9.05;100.00;98759.97;5092941;28;20375;-77
2022/09/13 05:46:54;;;;;;;;;;;;;;;9.26;100.00;98766.41;5092101;28;19924;-77
2022/09/13 05:49:21;;;;;;;;;;;;;;;9.30;100.00;98759.56;5091945;28;20402;-77
2022/09/13 05:51:48;;;;;;;;;;;;;;;9.40;100.00;98763.41;5093093;28;20448;-78
2022/09/13 05:54:15;;;;;;;;;;;;;;;9.10;100.00;98767.84;5093150;28;19928;-78
2022/09/13 05:56:42;;;;;;;;;;;;;;;9.23;100.00;98758.91;5071366;28;19937;-77
2022/09/13 05:59:11;;;;;;;;;;;;;;;9.16;100.00;98760.59;5088282;28;19978;-80
2022/09/13 06:01:38;;;;;;;;;;;;;;;8.95;100.00;98760.91;5086727;28;20043;-80
2022/09/13 06:04:05;;;;;;;;;;;;;;;8.32;100.00;98761.75;5088021;28;19990;-80
2022/09/13 06:06:34;;;;;;;;;;;;;;;8.35;100.00;98757.31;5087391;28;19924;-80
2022/09/13 06:09:01;;;;;;;;;;;;;;;8.44;100.00;98766.75;5087633;28;19928;-80
2022/09/13 06:11:28;;;;;;;;;;;;;;;8.62;100.00;98763.75;5088311;28;19924;-80
2022/09/13 06:13:55;;;;;;;;;;;;;;;8.82;100.00;98762.69;5088393;28;19928;-78
2022/09/13 06:16:22;;;;;;;;;;;;;;;8.93;100.00;98757.75;5087606;28;19932;-79
2022/09/13 06:18:49;;;;;;;;;;;;;;;8.47;100.00;98768.72;5088100;28;20452;-79
2022/09/13 06:21:20;;;;;;;;;;;;;;;8.77;100.00;98765.94;5088058;28;19963;-78
2022/09/13 06:23:50;;;;;;;;;;;;;;;9.10;100.00;98776.19;5087810;28;19932;-79
2022/09/13 06:26:21;;;;;;;;;;;;;;;8.74;100.00;98777.91;5087469;28;19928;-78
2022/09/13 06:28:49;;;;;;;;;;;;;;;8.39;100.00;98778.34;5088065;28;20026;-77
2022/09/13 06:31:18;;;;;;;;;;;;;;;8.99;100.00;98778.38;5087937;28;19925;-78
2022/09/13 06:33:46;;;;;;;;;;;;;;;8.79;100.00;98774.66;5088682;28;20260;-78
2022/09/13 06:36:16;;;;;;;;;;;;;;;8.72;100.00;98771.19;5091338;28;19924;-78
2022/09/13 06:38:44;;;;;;;;;;;;;;;9.22;100.00;98788.00;5094189;28;19986;-78
2022/09/13 06:41:12;;;;;;;;;;;;;;;9.89;100.00;98782.88;5078445;28;19924;-78
2022/09/13 06:43:40;;;;;;;;;;;;;;;10.35;100.00;98785.66;5095074;28;19928;-78
2022/09/13 06:46:11;;;;;;;;;;;;;;;11.02;100.00;98792.66;5096421;28;19977;-77
2022/09/13 06:48:39;;;;;;;;;;;;;;;11.26;100.00;98785.69;5096487;28;19931;-77
2022/09/13 06:51:08;;;;;;;;;;;;;;;11.92;100.00;98796.53;5096498;28;20073;-77
2022/09/13 06:53:36;;;;;;;;;;;;;;;13.26;100.00;98793.53;5096400;28;19931;-77
2022/09/13 06:56:07;;;;;;;;;;;;;;;13.28;100.00;98785.44;5096369;28;19978;-78
2022/09/13 06:58:35;;;;;;;;;;;;;;;14.64;100.00;98784.84;5094663;28;20379;-78
2022/09/13 07:01:18;;;;;;;;;;;;;;;15.34;100.00;98773.72;5094841;28;19963;-78
2022/09/13 07:03:46;;;;;;;;;;;;;;;15.83;100.00;98766.88;5096540;28;19928;-78
2022/09/13 07:06:15;;;;;;;;;;;;;;;15.51;100.00;98750.50;5096132;28;19924;-78
2022/09/13 07:08:45;;;;;;;;;;;;;;;16.27;100.00;98741.28;5096178;28;19932;-78
2022/09/13 07:11:14;;;;;;;;;;;;;;;17.41;100.00;98739.19;5095689;28;20371;-78
2022/09/13 07:13:41;;;;;;;;;;;;;;;17.95;100.00;98721.94;5095956;28;20291;-78
2022/09/13 07:16:11;;;;;;;;;;;;;;;17.73;100.00;98715.81;5096104;28;19924;-78
2022/09/13 07:18:38;;;;;;;;;;;;;;;17.95;100.00;98713.47;5095950;28;19977;-78
2022/09/13 07:21:06;;;;;;;;;;;;;;;17.10;100.00;98713.28;5095863;28;19924;-78
2022/09/13 07:23:35;;;;;;;;;;;;;;;16.87;100.00;98711.16;5077852;28;19924;-78
2022/09/13 07:26:04;;;;;;;;;;;;;;;17.69;100.00;98709.56;5095430;28;19924;-78
2022/09/13 07:28:33;;;;;;;;;;;;;;;18.60;100.00;98710.44;5095866;28;19928;-78
2022/09/13 07:31:09;;;;;;;;;;;;;;;18.34;100.00;98705.81;5094610;28;19923;-79
2022/09/13 07:33:37;;;;;;;;;;;;;;;18.53;100.00;98710.06;5095275;28;19924;-78
2022/09/13 07:36:07;;;;;;;;;;;;;;;18.96;100.00;98717.81;5095097;28;19924;-78
2022/09/13 07:38:35;;;;;;;;;;;;;;;19.73;100.00;98709.78;5093978;28;20352;-78
2022/09/13 07:41:05;;;;;;;;;;;;;;;20.26;100.00;98707.44;5095222;28;20299;-78
2022/09/13 07:43:33;;;;;;;;;;;;;;;19.51;100.00;98710.22;5095139;28;19928;-78
2022/09/13 07:46:01;;;;;;;;;;;;;;;19.24;100.00;98719.84;5077013;28;19928;-78
2022/09/13 07:48:29;;;;;;;;;;;;;;;19.30;100.00;98728.44;5095129;28;19924;-78
2022/09/13 07:51:06;;;;;;;;;;;;;;;19.20;100.00;98722.09;5093244;28;19928;-78
2022/09/13 07:53:35;;;;;;;;;;;;;;;19.13;100.00;98721.72;5093729;28;20299;-78
2022/09/13 07:56:03;;;;;;;;;;;;;;;17.89;100.00;98735.19;5077149;28;19924;-78
2022/09/13 07:58:31;;;;;;;;;;;;;;;18.59;100.00;98748.50;5094796;28;19931;-78
2022/09/13 08:01:06;;;;;;;;;;;;;;;19.65;100.00;98738.56;5095018;28;19924;-78
2022/09/13 08:03:33;;;;;;;;;;;;;;;19.68;100.00;98720.56;5094760;28;20268;-78
2022/09/13 08:06:01;;;;;;;;;;;;;;;20.30;100.00;98725.81;5093435;28;19935;-78
2022/09/13 08:08:29;;;;;;;;;;;;;;;18.75;100.00;98733.88;5093651;28;19925;-78
2022/09/13 08:10:56;;;;;;;;;;;;;;;18.54;100.00;98739.94;5094613;28;19954;-80
2022/09/13 08:13:23;;;;;;;;;;;;;;;18.72;100.00;98732.03;5101294;28;19927;-78
2022/09/13 08:15:50;;;;;;;;;;;;;;;19.30;100.00;98734.91;5097736;28;20303;-82
2022/09/13 08:18:18;;;;;;;;;;;;;;;20.44;100.00;98721.31;5090516;28;19931;-81
2022/09/13 08:20:45;;;;;;;;;;;;;;;21.06;100.00;98712.97;5092263;28;19931;-80
2022/09/13 08:23:12;;;;;;;;;;;;;;;21.02;100.00;98712.44;5107878;28;19923;-80
2022/09/13 08:25:39;;;;;;;;;;;;;;;20.97;100.00;98704.63;5108404;28;20056;-80
2022/09/13 08:28:07;;;;;;;;;;;;;;;21.10;100.00;98697.25;5110647;28;19923;-78
2022/09/13 08:30:36;;;;;;;;;;;;;;;20.66;100.00;98701.72;5108501;28;19924;-78
2022/09/13 08:33:03;;;;;;;;;;;;;;;20.51;100.00;98712.38;5090849;28;19970;-80
2022/09/13 08:35:31;;;;;;;;;;;;;;;20.42;100.00;98715.34;5103370;28;19924;-81
2022/09/13 08:37:59;;;;;;;;;;;;;;;21.33;100.00;98703.91;5107746;28;19924;-82
2022/09/13 08:40:52;;;;;;;;;;;;;;;22.38;100.00;98699.63;5074114;28;19930;-81
2022/09/13 08:43:25;;;;;;;;;;;;;;;22.47;100.00;98705.09;5106595;28;20440;-80
2022/09/13 08:45:58;;;;;;;;;;;;;;;22.91;100.00;98693.84;5109143;28;20336;-82
2022/09/13 08:48:32;;;;;;;;;;;;;;;23.37;100.00;98690.50;5108738;28;19931;-81
2022/09/13 08:51:03;;;;;;;;;;;;;;;23.64;100.00;98695.44;5090878;28;19977;-79
2022/09/13 08:53:31;;;;;;;;;;;;;;;23.97;100.00;98691.72;5108492;28;20375;-75
2022/09/13 08:56:10;;;;;;;;;;;;;;;24.27;100.00;98689.81;5109887;28;19924;-75
2022/09/13 08:58:55;;;;;;;;;;;;;;;24.31;100.00;98693.19;5111384;28;19947;-75
2022/09/13 09:01:41;;;;;;;;;;;;;;;23.75;100.00;98703.94;5108694;28;19985;-75
2022/09/13 09:04:14;;;;;;;;;;;;;;;22.96;100.00;98707.31;5107965;28;20017;-76
2022/09/13 09:06:42;;;;;;;;;;;;;;;21.55;100.00;98712.59;5074192;28;20383;-75
2022/09/13 09:09:15;;;;;;;;;;;;;;;21.19;100.00;98711.28;5091129;28;20034;-75
2022/09/13 09:11:59;;;;;;;;;;;;;;;20.48;100.00;98719.03;5107494;28;19924;-75
2022/09/13 09:14:31;;;;;;;;;;;;;;;19.84;100.00;98715.63;5109902;28;19931;-75
2022/09/13 09:17:05;;;;;;;;;;;;;;;19.56;100.00;98723.72;5108749;28;20298;-75
2022/09/13 09:19:35;;;;;;;;;;;;;;;19.48;100.00;98729.00;5108844;28;19924;-75
2022/09/13 09:22:11;;;;;;;;;;;;;;;18.70;100.00;98720.44;5108440;28;19923;-75
2022/09/13 09:24:39;;;;;;;;;;;;;;;19.05;100.00;98723.38;5091079;28;19963;-75
2022/09/13 09:27:25;;;;;;;;;;;;;;;19.86;100.00;98719.50;5109060;28;20441;-75
2022/09/13 09:29:54;;;;;;;;;;;;;;;18.75;100.00;98725.41;5091565;28;20349;-75
2022/09/13 09:32:23;;;;;;;;;;;;;;;18.27;100.00;98731.59;5107475;28;20350;-75
2022/09/13 09:34:53;;;;;;;;;;;;;;;18.60;100.00;98737.97;5108416;28;19924;-75
2022/09/13 09:37:24;;;;;;;;;;;;;;;18.82;100.00;98733.53;5090438;28;20019;-75
2022/09/13 09:39:52;;;;;;;;;;;;;;;19.40;100.00;98736.34;5108197;28;19955;-75
2022/09/13 09:42:20;;;;;;;;;;;;;;;19.29;100.00;98727.69;5107397;28;19924;-75
2022/09/13 09:44:56;;;;;;;;;;;;;;;19.67;100.00;98746.56;5107080;28;19935;-75
2022/09/13 09:47:25;;;;;;;;;;;;;;;19.85;100.00;98740.66;5108515;28;20010;-75
2022/09/13 09:50:10;;;;;;;;;;;;;;;19.18;100.00;98721.78;5108079;28;19924;-75
2022/09/13 09:52:38;;;;;;;;;;;;;;;18.94;100.00;98723.97;5108606;28;19963;-75
2022/09/13 09:55:25;;;;;;;;;;;;;;;19.01;100.00;98729.22;5109222;28;20289;-75
2022/09/13 09:57:55;;;;;;;;;;;;;;;18.93;100.00;98733.69;5107792;28;19930;-75
2022/09/13 10:00:24;;;;;;;;;;;;;;;19.08;100.00;98728.84;5107905;28;20424;-75
2022/09/13 10:02:53;;;;;;;;;;;;;;;19.21;100.00;98731.34;5108127;28;19928;-75
2022/09/13 10:05:21;;;;;;;;;;;;;;;19.51;100.00;98728.03;5106544;28;20294;-75
2022/09/13 10:08:02;;;;;;;;;;;;;;;19.00;100.00;98732.53;5109427;28;19936;-78
2022/09/13 10:10:41;;;;;;;;;;;;;;;19.15;100.00;98734.09;5109395;28;19923;-79
2022/09/13 10:13:16;;;;;;;;;;;;;;;19.03;100.00;98735.19;5109516;28;19928;-78
2022/09/13 10:16:03;;;;;;;;;;;;;;;19.37;100.00;98730.91;5114584;28;19931;-78
2022/09/13 10:18:34;;;;;;;;;;;;;;;19.94;100.00;98719.88;5112269;28;20280;-78
2022/09/13 10:21:16;;;;;;;;;;;;;;;20.37;100.00;98725.38;5111931;28;19923;-78
2022/09/13 10:23:44;;;;;;;;;;;;;;;20.14;100.00;98722.75;5096197;28;19927;-79
2022/09/13 10:26:12;;;;;;;;;;;;;;;20.42;100.00;98715.34;5114360;28;19966;-78
2022/09/13 10:28:51;;;;;;;;;;;;;;;20.10;100.00;98713.66;5112589;28;19973;-81
2022/09/13 10:31:19;;;;;;;;;;;;;;;19.97;100.00;98713.22;5112517;28;20019;-78
2022/09/13 10:33:49;;;;;;;;;;;;;;;19.17;100.00;98719.47;5093742;28;20287;-79
2022/09/13 10:36:16;;;;;;;;;;;;;;;19.82;100.00;98715.31;5092131;28;19930;-78
2022/09/13 10:38:52;;;;;;;;;;;;;;;20.03;100.00;98733.91;5093485;28;20614;-79
2022/09/13 10:41:21;;;;;;;;;;;;;;;19.33;100.00;98728.25;5091761;28;20398;-79
2022/09/13 10:43:49;;;;;;;;;;;;;;;19.84;100.00;98722.09;5092887;28;19924;-78
2022/09/13 10:46:21;;;;;;;;;;;;;;;20.15;100.00;98707.28;5093713;28;19963;-78
2022/09/13 10:48:55;;;;;;;;;;;;;;;19.99;100.00;98699.34;5108760;28;19934;-77
2022/09/13 10:51:22;;;;;;;;;;;;;;;20.12;100.00;98705.41;5112117;28;19927;-77
2022/09/13 10:53:49;;;;;;;;;;;;;;;19.60;100.00;98713.72;5112071;28;20314;-78
2022/09/13 10:56:24;;;;;;;;;;;;;;;20.01;100.00;98710.97;5113789;28;20009;-77
2022/09/13 10:59:11;;;;;;;;;;;;;;;20.24;100.00;98707.94;5112546;28;19955;-78
2022/09/13 11:01:50;;;;;;;;;;;;;;;20.56;100.00;98705.97;5113951;28;19950;-79
2022/09/13 11:04:23;;;;;;;;;;;;;;;19.75;100.00;98691.00;5113825;28;20356;-79
2022/09/13 11:06:58;;;;;;;;;;;;;;;19.15;100.00;98700.13;5111671;28;19946;-78
2022/09/13 11:09:27;;;;;;;;;;;;;;;18.73;100.00;98702.47;5095523;28;20713;-78
2022/09/13 11:12:06;;;;;;;;;;;;;;;19.31;100.00;98701.69;5111902;28;19934;-78
2022/09/13 11:14:46;;;;;;;;;;;;;;;19.87;100.00;98708.97;5111961;28;19924;-78
2022/09/13 11:17:27;;;;;;;;;;;;;;;19.19;100.00;98695.03;5077344;28;19931;-78
2022/09/13 11:20:05;;;;;;;;;;;;;;;19.43;100.00;98690.03;5113209;28;20447;-78
2022/09/13 11:22:51;;;;;;;;;;;;;;;19.90;100.00;98679.63;5077967;28;19931;-77
2022/09/13 11:25:30;;;;;;;;;;;;;;;20.05;100.00;98680.34;5094542;28;20018;-81
2022/09/13 11:28:00;;;;;;;;;;;;;;;20.02;100.00;98679.28;5114915;28;20370;-79
2022/09/13 11:30:30;;;;;;;;;;;;;;;20.27;100.00;98680.63;5081143;28;19947;-80
2022/09/13 11:33:15;;;;;;;;;;;;;;;20.17;100.00;98670.72;5115473;28;19951;-79
2022/09/13 11:35:42;;;;;;;;;;;;;;;20.12;100.00;98668.56;5115684;28;19928;-79
2022/09/13 11:38:28;;;;;;;;;;;;;;;20.60;100.00;98658.31;5098724;28;19935;-80
2022/09/13 11:40:55;;;;;;;;;;;;;;;20.60;100.00;98652.63;5115825;28;19959;-79
2022/09/13 11:43:21;;;;;;;;;;;;;;;20.77;100.00;98650.72;5115434;28;19934;-79
2022/09/13 11:45:54;;;;;;;;;;;;;;;20.89;100.00;98655.22;5081904;28;20355;-79
2022/09/13 11:48:22;;;;;;;;;;;;;;;20.49;100.00;98658.94;5115136;28;19955;-79
2022/09/13 11:50:58;;;;;;;;;;;;;;;19.99;100.00;98651.13;5115605;28;20017;-79
2022/09/13 11:53:28;;;;;;;;;;;;;;;19.50;100.00;98661.31;5115293;28;20376;-79
2022/09/13 11:56:28;;;;;;;;;;;;;;;18.76;100.00;98659.06;5098077;28;19928;-77
2022/09/13 11:59:00;;;;;;;;;;;;;;;19.65;100.00;98658.41;5027638;28;20022;-78
2022/09/13 12:01:30;;;;;;;;;;;;;;;20.29;100.00;98661.06;5097920;28;19924;-80
2022/09/13 12:04:04;;;;;;;;;;;;;;;20.72;100.00;98657.91;5098487;28;19924;-79
2022/09/13 12:06:34;;;;;;;;;;;;;;;20.87;100.00;98654.94;5114928;28;20358;-77
2022/09/13 12:09:06;;;;;;;;;;;;;;;21.03;100.00;98648.66;5116017;28;19935;-77
2022/09/13 12:11:35;;;;;;;;;;;;;;;21.01;100.00;98645.53;5116111;28;19938;-77
2022/09/13 12:14:14;;;;;;;;;;;;;;;21.25;100.00;98631.75;5114830;28;20415;-77
2022/09/13 12:16:44;;;;;;;;;;;;;;;21.50;100.00;98633.75;5097744;28;19950;-77
2022/09/13 12:19:16;;;;;;;;;;;;;;;21.53;100.00;98618.53;5097781;28;20347;-75
2022/09/13 12:21:44;;;;;;;;;;;;;;;20.94;100.00;98621.19;5114640;28;19923;-77
2022/09/13 12:24:36;;;;;;;;;;;;;;;21.22;100.00;98618.56;5097734;28;19977;-77
2022/09/13 12:27:09;;;;;;;;;;;;;;;20.85;100.00;98620.59;5115489;28;19946;-77
2022/09/13 12:29:44;;;;;;;;;;;;;;;20.96;100.00;98623.56;5114583;28;19928;-77
2022/09/13 12:32:12;;;;;;;;;;;;;;;20.92;100.00;98623.75;5097456;28;19924;-75
2022/09/13 12:34:42;;;;;;;;;;;;;;;20.99;100.00;98622.56;5114047;28;19924;-77
2022/09/13 12:37:15;;;;;;;;;;;;;;;20.89;100.00;98629.66;5097063;28;19928;-77
2022/09/13 12:39:48;;;;;;;;;;;;;;;20.96;100.00;98626.41;5080425;28;19981;-77
2022/09/13 12:42:31;;;;;;;;;;;;;;;20.35;100.00;98622.19;5114399;28;20042;-78
2022/09/13 12:45:16;;;;;;;;;;;;;;;20.15;100.00;98634.34;5097272;28;20026;-76
2022/09/13 12:47:55;;;;;;;;;;;;;;;20.68;100.00;98631.81;5114209;28;19931;-76
2022/09/13 12:50:31;;;;;;;;;;;;;;;20.98;100.00;98629.50;5113626;28;19967;-76
2022/09/13 12:53:34;;;;;;;;;;;;;;;20.98;100.00;98623.81;5114269;28;19946;-76
2022/09/13 12:56:13;;;;;;;;;;;;;;;21.40;100.00;98621.81;5113956;28;19930;-76
2022/09/13 12:58:47;;;;;;;;;;;;;;;20.83;100.00;98621.09;5113738;28;19924;-77